sensor_id;sensor_type;location;lat;lon;timestamp;temperature;humidity
4811;DHT22;2419;51.276;6.472;2023-05-07T00:01:29;14.50;99.90
4811;DHT22;2419;51.276;6.472;2023-05-07T00:03:58;14.60;99.90
4811;DHT22;2419;51.276;6.472;2023-05-07T00:06:27;14.60;99.90
4811;DHT22;2419;51.276;6.472;2023-05-07T00:08:56;14.60;99.90
4811;DHT22;2419;51.276;6.472;2023-05-07T00:11:24;14.60;99.90
4811;DHT22;2419;51.276;6.472;2023-05-07T00:13:53;14.60;99.90
4811;DHT22;2419;51.276;6.472;2023-05-07T00:16:21;14.60;99.90
4811;DHT22;2419;51.276;6.472;2023-05-07T00:18:49;14.60;99.90
4811;DHT22;2419;51.276;6.472;2023-05-07T00:21:17;14.50;99.90
4811;DHT22;2419;51.276;6.472;2023-05-07T00:23:47;14.50;99.90
4811;DHT22;2419;51.276;6.472;2023-05-07T00:26:15;14.50;99.90
4811;DHT22;2419;51.276;6.472;2023-05-07T00:28:45;14.50;99.90
4811;DHT22;2419;51.276;6.472;2023-05-07T00:31:13;14.60;99.90
4811;DHT22;2419;51.276;6.472;2023-05-07T00:33:41;14.60;99.90
4811;DHT22;2419;51.276;6.472;2023-05-07T00:36:09;14.50;99.90
4811;DHT22;2419;51.276;6.472;2023-05-07T00:38:37;14.50;99.90
4811;DHT22;2419;51.276;6.472;2023-05-07T00:41:06;14.50;99.90
4811;DHT22;2419;51.276;6.472;2023-05-07T00:43:34;14.50;99.90
4811;DHT22;2419;51.276;6.472;2023-05-07T00:46:02;14.40;99.90
4811;DHT22;2419;51.276;6.472;2023-05-07T00:48:31;14.40;99.90
4811;DHT22;2419;51.276;6.472;2023-05-07T00:50:59;14.40;99.90
4811;DHT22;2419;51.276;6.472;2023-05-07T00:53:27;14.30;99.90
4811;DHT22;2419;51.276;6.472;2023-05-07T00:55:55;14.50;99.90
4811;DHT22;2419;51.276;6.472;2023-05-07T00:58:25;14.50;99.90
4811;DHT22;2419;51.276;6.472;2023-05-07T01:00:53;14.50;99.90
4811;DHT22;2419;51.276;6.472;2023-05-07T01:03:21;14.40;99.90
4811;DHT22;2419;51.276;6.472;2023-05-07T01:05:50;14.40;99.90
4811;DHT22;2419;51.276;6.472;2023-05-07T01:08:20;14.30;99.90
4811;DHT22;2419;51.276;6.472;2023-05-07T01:10:48;14.30;99.90
4811;DHT22;2419;51.276;6.472;2023-05-07T01:13:17;14.30;99.90
4811;DHT22;2419;51.276;6.472;2023-05-07T01:15:47;14.30;99.90
4811;DHT22;2419;51.276;6.472;2023-05-07T01:18:15;14.20;99.90
4811;DHT22;2419;51.276;6.472;2023-05-07T01:20:43;14.20;99.90
4811;DHT22;2419;51.276;6.472;2023-05-07T01:23:13;14.10;99.90
4811;DHT22;2419;51.276;6.472;2023-05-07T01:25:41;14.20;99.90
4811;DHT22;2419;51.276;6.472;2023-05-07T01:28:10;14.20;99.90
4811;DHT22;2419;51.276;6.472;2023-05-07T01:30:42;14.30;99.90
4811;DHT22;2419;51.276;6.472;2023-05-07T01:33:14;14.20;99.90
4811;DHT22;2419;51.276;6.472;2023-05-07T01:35:45;14.20;99.90
4811;DHT22;2419;51.276;6.472;2023-05-07T01:38:16;14.20;99.90
4811;DHT22;2419;51.276;6.472;2023-05-07T01:40:45;14.10;99.90
4811;DHT22;2419;51.276;6.472;2023-05-07T01:43:13;14.10;99.90
4811;DHT22;2419;51.276;6.472;2023-05-07T01:45:42;14.10;99.90
4811;DHT22;2419;51.276;6.472;2023-05-07T01:48:12;14.00;99.90
4811;DHT22;2419;51.276;6.472;2023-05-07T01:50:42;14.10;99.90
4811;DHT22;2419;51.276;6.472;2023-05-07T01:53:11;14.00;99.90
4811;DHT22;2419;51.276;6.472;2023-05-07T01:55:40;14.00;99.90
4811;DHT22;2419;51.276;6.472;2023-05-07T01:58:08;14.10;99.90
4811;DHT22;2419;51.276;6.472;2023-05-07T02:00:36;14.10;99.90
4811;DHT22;2419;51.276;6.472;2023-05-07T02:03:04;14.00;99.90
4811;DHT22;2419;51.276;6.472;2023-05-07T02:05:40;14.00;99.90
4811;DHT22;2419;51.276;6.472;2023-05-07T02:08:31;14.00;99.90
4811;DHT22;2419;51.276;6.472;2023-05-07T02:11:00;14.00;99.90
4811;DHT22;2419;51.276;6.472;2023-05-07T02:13:33;14.00;99.90
4811;DHT22;2419;51.276;6.472;2023-05-07T02:16:03;14.10;99.90
4811;DHT22;2419;51.276;6.472;2023-05-07T02:18:33;14.10;99.90
4811;DHT22;2419;51.276;6.472;2023-05-07T02:21:02;14.00;99.90
4811;DHT22;2419;51.276;6.472;2023-05-07T02:23:30;14.10;99.90
4811;DHT22;2419;51.276;6.472;2023-05-07T02:25:58;14.00;99.90
4811;DHT22;2419;51.276;6.472;2023-05-07T02:28:27;13.90;99.90
4811;DHT22;2419;51.276;6.472;2023-05-07T02:31:02;13.90;99.90
4811;DHT22;2419;51.276;6.472;2023-05-07T02:33:31;13.80;99.90
4811;DHT22;2419;51.276;6.472;2023-05-07T02:36:05;13.80;99.90
4811;DHT22;2419;51.276;6.472;2023-05-07T02:38:35;13.90;99.90
4811;DHT22;2419;51.276;6.472;2023-05-07T02:41:05;14.00;99.90
4811;DHT22;2419;51.276;6.472;2023-05-07T02:43:34;13.90;99.90
4811;DHT22;2419;51.276;6.472;2023-05-07T02:46:03;13.90;99.90
4811;DHT22;2419;51.276;6.472;2023-05-07T02:48:34;13.90;99.90
4811;DHT22;2419;51.276;6.472;2023-05-07T02:51:03;13.80;99.90
4811;DHT22;2419;51.276;6.472;2023-05-07T02:53:33;13.80;99.90
4811;DHT22;2419;51.276;6.472;2023-05-07T02:56:01;13.80;99.90
4811;DHT22;2419;51.276;6.472;2023-05-07T02:58:29;13.80;99.90
4811;DHT22;2419;51.276;6.472;2023-05-07T03:01:00;13.80;99.90
4811;DHT22;2419;51.276;6.472;2023-05-07T03:03:33;13.80;99.90
4811;DHT22;2419;51.276;6.472;2023-05-07T03:06:01;13.80;99.90
4811;DHT22;2419;51.276;6.472;2023-05-07T03:08:29;13.80;99.90
4811;DHT22;2419;51.276;6.472;2023-05-07T03:10:57;13.80;99.90
4811;DHT22;2419;51.276;6.472;2023-05-07T03:13:25;13.90;99.90
4811;DHT22;2419;51.276;6.472;2023-05-07T03:15:53;13.90;99.90
4811;DHT22;2419;51.276;6.472;2023-05-07T03:18:23;14.00;99.90
4811;DHT22;2419;51.276;6.472;2023-05-07T03:20:51;14.00;99.90
4811;DHT22;2419;51.276;6.472;2023-05-07T03:23:19;14.00;99.90
4811;DHT22;2419;51.276;6.472;2023-05-07T03:25:50;14.00;99.90
4811;DHT22;2419;51.276;6.472;2023-05-07T03:28:18;14.00;99.90
4811;DHT22;2419;51.276;6.472;2023-05-07T03:30:52;14.00;99.90
4811;DHT22;2419;51.276;6.472;2023-05-07T03:33:20;14.00;99.90
4811;DHT22;2419;51.276;6.472;2023-05-07T03:35:50;14.10;99.90
4811;DHT22;2419;51.276;6.472;2023-05-07T03:38:22;14.10;99.90
4811;DHT22;2419;51.276;6.472;2023-05-07T03:40:50;14.10;99.90
4811;DHT22;2419;51.276;6.472;2023-05-07T03:43:18;14.00;99.90
4811;DHT22;2419;51.276;6.472;2023-05-07T03:45:51;13.90;99.90
4811;DHT22;2419;51.276;6.472;2023-05-07T03:48:23;13.90;99.90
4811;DHT22;2419;51.276;6.472;2023-05-07T03:50:57;13.80;99.90
4811;DHT22;2419;51.276;6.472;2023-05-07T03:53:29;13.80;99.90
4811;DHT22;2419;51.276;6.472;2023-05-07T03:55:57;13.80;99.90
4811;DHT22;2419;51.276;6.472;2023-05-07T03:58:25;13.70;99.90
4811;DHT22;2419;51.276;6.472;2023-05-07T04:00:56;13.70;99.90
4811;DHT22;2419;51.276;6.472;2023-05-07T04:03:27;13.70;99.90
4811;DHT22;2419;51.276;6.472;2023-05-07T04:05:59;13.70;99.90
4811;DHT22;2419;51.276;6.472;2023-05-07T04:08:27;13.70;99.90
4811;DHT22;2419;51.276;6.472;2023-05-07T04:10:55;13.60;99.90
4811;DHT22;2419;51.276;6.472;2023-05-07T04:13:25;13.70;99.90
4811;DHT22;2419;51.276;6.472;2023-05-07T04:15:55;13.70;99.90
4811;DHT22;2419;51.276;6.472;2023-05-07T04:18:26;13.70;99.90
4811;DHT22;2419;51.276;6.472;2023-05-07T04:20:54;13.70;99.90
4811;DHT22;2419;51.276;6.472;2023-05-07T04:23:23;13.80;99.90
4811;DHT22;2419;51.276;6.472;2023-05-07T04:25:52;13.90;99.90
4811;DHT22;2419;51.276;6.472;2023-05-07T04:28:30;14.00;99.90
4811;DHT22;2419;51.276;6.472;2023-05-07T04:30:58;14.00;99.90
4811;DHT22;2419;51.276;6.472;2023-05-07T04:33:27;14.00;99.90
4811;DHT22;2419;51.276;6.472;2023-05-07T04:35:57;14.00;99.90
4811;DHT22;2419;51.276;6.472;2023-05-07T04:38:31;14.00;99.90
4811;DHT22;2419;51.276;6.472;2023-05-07T04:41:03;14.00;99.90
4811;DHT22;2419;51.276;6.472;2023-05-07T04:43:34;14.00;99.90
4811;DHT22;2419;51.276;6.472;2023-05-07T04:46:02;13.90;99.90
4811;DHT22;2419;51.276;6.472;2023-05-07T04:48:30;13.90;99.90
4811;DHT22;2419;51.276;6.472;2023-05-07T04:50:59;13.90;99.90
4811;DHT22;2419;51.276;6.472;2023-05-07T04:53:27;14.00;99.90
4811;DHT22;2419;51.276;6.472;2023-05-07T04:55:58;14.00;99.90
4811;DHT22;2419;51.276;6.472;2023-05-07T04:58:32;14.10;99.90
4811;DHT22;2419;51.276;6.472;2023-05-07T05:01:00;14.20;99.90
4811;DHT22;2419;51.276;6.472;2023-05-07T05:03:29;14.10;99.90
4811;DHT22;2419;51.276;6.472;2023-05-07T05:05:58;14.20;99.90
4811;DHT22;2419;51.276;6.472;2023-05-07T05:08:31;14.30;99.90
4811;DHT22;2419;51.276;6.472;2023-05-07T05:11:02;14.30;99.90
4811;DHT22;2419;51.276;6.472;2023-05-07T05:13:32;14.40;99.90
4811;DHT22;2419;51.276;6.472;2023-05-07T05:16:06;14.50;99.90
4811;DHT22;2419;51.276;6.472;2023-05-07T05:18:35;14.50;99.90
4811;DHT22;2419;51.276;6.472;2023-05-07T05:21:03;14.50;99.90
4811;DHT22;2419;51.276;6.472;2023-05-07T05:23:32;14.60;99.90
4811;DHT22;2419;51.276;6.472;2023-05-07T05:26:01;14.70;99.90
4811;DHT22;2419;51.276;6.472;2023-05-07T05:28:32;14.70;99.90
4811;DHT22;2419;51.276;6.472;2023-05-07T05:31:00;14.80;99.90
4811;DHT22;2419;51.276;6.472;2023-05-07T05:33:32;14.80;99.90
4811;DHT22;2419;51.276;6.472;2023-05-07T05:36:03;14.80;99.90
4811;DHT22;2419;51.276;6.472;2023-05-07T05:38:32;14.90;99.90
4811;DHT22;2419;51.276;6.472;2023-05-07T05:41:02;15.00;99.90
4811;DHT22;2419;51.276;6.472;2023-05-07T05:43:30;15.10;99.90
4811;DHT22;2419;51.276;6.472;2023-05-07T05:45:58;15.10;99.90
4811;DHT22;2419;51.276;6.472;2023-05-07T05:48:28;15.10;99.90
4811;DHT22;2419;51.276;6.472;2023-05-07T05:50:58;15.10;99.90
4811;DHT22;2419;51.276;6.472;2023-05-07T05:53:26;15.10;99.90
4811;DHT22;2419;51.276;6.472;2023-05-07T05:55:54;15.20;99.90
4811;DHT22;2419;51.276;6.472;2023-05-07T05:58:23;15.20;99.90
4811;DHT22;2419;51.276;6.472;2023-05-07T06:00:57;15.20;99.90
4811;DHT22;2419;51.276;6.472;2023-05-07T06:03:27;15.40;99.90
4811;DHT22;2419;51.276;6.472;2023-05-07T06:05:58;15.50;99.90
4811;DHT22;2419;51.276;6.472;2023-05-07T06:08:29;15.60;99.90
4811;DHT22;2419;51.276;6.472;2023-05-07T06:10:58;15.70;99.90
4811;DHT22;2419;51.276;6.472;2023-05-07T06:13:28;16.00;99.90
4811;DHT22;2419;51.276;6.472;2023-05-07T06:15:56;16.20;99.90
4811;DHT22;2419;51.276;6.472;2023-05-07T06:18:24;16.30;99.90
4811;DHT22;2419;51.276;6.472;2023-05-07T06:20:53;16.20;99.90
4811;DHT22;2419;51.276;6.472;2023-05-07T06:23:27;16.20;99.90
4811;DHT22;2419;51.276;6.472;2023-05-07T06:25:55;16.20;99.90
4811;DHT22;2419;51.276;6.472;2023-05-07T06:28:29;16.00;99.90
4811;DHT22;2419;51.276;6.472;2023-05-07T06:31:14;16.00;99.90
4811;DHT22;2419;51.276;6.472;2023-05-07T06:33:52;16.20;99.90
4811;DHT22;2419;51.276;6.472;2023-05-07T06:36:22;16.20;99.90
4811;DHT22;2419;51.276;6.472;2023-05-07T06:38:51;16.20;99.90
4811;DHT22;2419;51.276;6.472;2023-05-07T06:41:20;16.40;99.90
4811;DHT22;2419;51.276;6.472;2023-05-07T06:43:49;16.40;99.90
4811;DHT22;2419;51.276;6.472;2023-05-07T06:46:29;16.50;99.90
4811;DHT22;2419;51.276;6.472;2023-05-07T06:48:57;16.50;99.90
4811;DHT22;2419;51.276;6.472;2023-05-07T06:51:26;16.70;99.90
4811;DHT22;2419;51.276;6.472;2023-05-07T06:53:57;16.80;99.90
4811;DHT22;2419;51.276;6.472;2023-05-07T06:56:25;16.90;99.90
4811;DHT22;2419;51.276;6.472;2023-05-07T06:58:54;17.10;99.90
4811;DHT22;2419;51.276;6.472;2023-05-07T07:01:22;17.10;99.90
4811;DHT22;2419;51.276;6.472;2023-05-07T07:03:50;17.10;99.90
4811;DHT22;2419;51.276;6.472;2023-05-07T07:06:21;17.20;99.90
4811;DHT22;2419;51.276;6.472;2023-05-07T07:08:49;17.20;99.90
4811;DHT22;2419;51.276;6.472;2023-05-07T07:11:17;17.40;99.90
4811;DHT22;2419;51.276;6.472;2023-05-07T07:13:45;17.50;99.90
4811;DHT22;2419;51.276;6.472;2023-05-07T07:16:15;17.60;99.90
4811;DHT22;2419;51.276;6.472;2023-05-07T07:18:44;17.70;99.90
4811;DHT22;2419;51.276;6.472;2023-05-07T07:21:12;17.90;99.90
4811;DHT22;2419;51.276;6.472;2023-05-07T07:23:40;17.90;99.90
4811;DHT22;2419;51.276;6.472;2023-05-07T07:26:08;17.90;99.90
4811;DHT22;2419;51.276;6.472;2023-05-07T07:28:42;18.00;99.90
4811;DHT22;2419;51.276;6.472;2023-05-07T07:31:15;18.20;99.90
4811;DHT22;2419;51.276;6.472;2023-05-07T07:33:44;18.30;99.90
4811;DHT22;2419;51.276;6.472;2023-05-07T07:36:12;18.30;99.90
4811;DHT22;2419;51.276;6.472;2023-05-07T07:38:40;18.20;99.90
4811;DHT22;2419;51.276;6.472;2023-05-07T07:41:08;18.20;99.90
4811;DHT22;2419;51.276;6.472;2023-05-07T07:43:36;18.20;99.90
4811;DHT22;2419;51.276;6.472;2023-05-07T07:46:05;18.30;99.90
4811;DHT22;2419;51.276;6.472;2023-05-07T07:48:35;18.50;99.90
4811;DHT22;2419;51.276;6.472;2023-05-07T07:51:03;18.60;99.90
4811;DHT22;2419;51.276;6.472;2023-05-07T07:53:32;18.80;99.90
4811;DHT22;2419;51.276;6.472;2023-05-07T07:56:00;18.90;99.90
4811;DHT22;2419;51.276;6.472;2023-05-07T07:58:33;19.10;99.90
4811;DHT22;2419;51.276;6.472;2023-05-07T08:01:03;19.20;99.90
4811;DHT22;2419;51.276;6.472;2023-05-07T08:03:31;19.30;99.90
4811;DHT22;2419;51.276;6.472;2023-05-07T08:06:03;19.50;99.90
4811;DHT22;2419;51.276;6.472;2023-05-07T08:08:33;19.60;99.90
4811;DHT22;2419;51.276;6.472;2023-05-07T08:11:02;19.70;99.90
4811;DHT22;2419;51.276;6.472;2023-05-07T08:13:32;19.80;99.90
4811;DHT22;2419;51.276;6.472;2023-05-07T08:16:00;19.80;99.90
4811;DHT22;2419;51.276;6.472;2023-05-07T08:18:28;20.00;99.90
4811;DHT22;2419;51.276;6.472;2023-05-07T08:21:01;20.30;99.90
4811;DHT22;2419;51.276;6.472;2023-05-07T08:23:30;20.50;99.90
4811;DHT22;2419;51.276;6.472;2023-05-07T08:25:59;20.70;99.90
4811;DHT22;2419;51.276;6.472;2023-05-07T08:28:28;20.80;99.90
4811;DHT22;2419;51.276;6.472;2023-05-07T08:30:56;20.70;99.90
4811;DHT22;2419;51.276;6.472;2023-05-07T08:33:29;20.70;99.90
4811;DHT22;2419;51.276;6.472;2023-05-07T08:35:57;20.80;99.90
4811;DHT22;2419;51.276;6.472;2023-05-07T08:38:27;20.80;99.90
4811;DHT22;2419;51.276;6.472;2023-05-07T08:40:56;20.70;99.90
4811;DHT22;2419;51.276;6.472;2023-05-07T08:43:26;20.30;99.90
4811;DHT22;2419;51.276;6.472;2023-05-07T08:45:55;20.20;99.90
4811;DHT22;2419;51.276;6.472;2023-05-07T08:48:29;20.20;99.90
4811;DHT22;2419;51.276;6.472;2023-05-07T08:51:05;20.10;99.90
4811;DHT22;2419;51.276;6.472;2023-05-07T08:53:36;20.00;99.90
4811;DHT22;2419;51.276;6.472;2023-05-07T08:56:08;20.10;99.90
4811;DHT22;2419;51.276;6.472;2023-05-07T08:58:39;20.10;99.90
4811;DHT22;2419;51.276;6.472;2023-05-07T09:01:08;20.10;99.90
4811;DHT22;2419;51.276;6.472;2023-05-07T09:03:38;20.20;99.90
4811;DHT22;2419;51.276;6.472;2023-05-07T09:06:06;20.50;99.90
4811;DHT22;2419;51.276;6.472;2023-05-07T09:08:36;20.70;99.90
4811;DHT22;2419;51.276;6.472;2023-05-07T09:11:06;20.60;99.90
4811;DHT22;2419;51.276;6.472;2023-05-07T09:13:35;20.70;99.90
4811;DHT22;2419;51.276;6.472;2023-05-07T09:16:11;20.80;99.90
4811;DHT22;2419;51.276;6.472;2023-05-07T09:18:43;21.20;99.90
4811;DHT22;2419;51.276;6.472;2023-05-07T09:21:15;21.50;99.90
4811;DHT22;2419;51.276;6.472;2023-05-07T09:23:47;21.50;99.90
4811;DHT22;2419;51.276;6.472;2023-05-07T09:26:16;22.10;99.90
4811;DHT22;2419;51.276;6.472;2023-05-07T09:28:44;22.30;99.90
4811;DHT22;2419;51.276;6.472;2023-05-07T09:31:13;22.90;99.90
4811;DHT22;2419;51.276;6.472;2023-05-07T09:33:42;23.50;99.90
4811;DHT22;2419;51.276;6.472;2023-05-07T09:36:12;24.00;99.90
4811;DHT22;2419;51.276;6.472;2023-05-07T09:38:41;24.90;97.90
4811;DHT22;2419;51.276;6.472;2023-05-07T09:41:12;25.20;96.10
4811;DHT22;2419;51.276;6.472;2023-05-07T09:43:54;25.10;94.20
4811;DHT22;2419;51.276;6.472;2023-05-07T09:46:30;24.50;94.80
4811;DHT22;2419;51.276;6.472;2023-05-07T09:49:02;24.40;96.00
4811;DHT22;2419;51.276;6.472;2023-05-07T09:51:41;24.90;95.90
4811;DHT22;2419;51.276;6.472;2023-05-07T09:54:10;24.70;94.90
4811;DHT22;2419;51.276;6.472;2023-05-07T09:56:43;24.30;94.40
4811;DHT22;2419;51.276;6.472;2023-05-07T09:59:13;23.50;96.60
4811;DHT22;2419;51.276;6.472;2023-05-07T10:01:43;23.30;97.00
4811;DHT22;2419;51.276;6.472;2023-05-07T10:04:14;23.00;97.80
4811;DHT22;2419;51.276;6.472;2023-05-07T10:06:44;22.90;98.80
4811;DHT22;2419;51.276;6.472;2023-05-07T10:09:14;23.10;98.10
4811;DHT22;2419;51.276;6.472;2023-05-07T10:11:44;23.20;97.50
4811;DHT22;2419;51.276;6.472;2023-05-07T10:14:13;23.40;97.00
4811;DHT22;2419;51.276;6.472;2023-05-07T10:16:42;23.40;97.40
4811;DHT22;2419;51.276;6.472;2023-05-07T10:19:15;23.50;96.60
4811;DHT22;2419;51.276;6.472;2023-05-07T10:21:55;23.40;96.50
4811;DHT22;2419;51.276;6.472;2023-05-07T10:24:26;23.40;96.50
4811;DHT22;2419;51.276;6.472;2023-05-07T10:26:59;23.20;96.00
4811;DHT22;2419;51.276;6.472;2023-05-07T10:29:35;23.20;96.50
4811;DHT22;2419;51.276;6.472;2023-05-07T10:32:22;23.00;96.60
4811;DHT22;2419;51.276;6.472;2023-05-07T10:34:55;22.80;96.50
4811;DHT22;2419;51.276;6.472;2023-05-07T10:37:24;22.70;97.50
4811;DHT22;2419;51.276;6.472;2023-05-07T10:39:55;22.80;96.80
4811;DHT22;2419;51.276;6.472;2023-05-07T10:42:26;22.60;97.20
4811;DHT22;2419;51.276;6.472;2023-05-07T10:44:57;22.80;96.80
4811;DHT22;2419;51.276;6.472;2023-05-07T10:47:29;22.70;97.20
4811;DHT22;2419;51.276;6.472;2023-05-07T10:50:22;22.50;97.80
4811;DHT22;2419;51.276;6.472;2023-05-07T10:53:21;22.50;98.20
4811;DHT22;2419;51.276;6.472;2023-05-07T10:56:24;22.50;98.60
4811;DHT22;2419;51.276;6.472;2023-05-07T10:59:33;22.50;98.40
4811;DHT22;2419;51.276;6.472;2023-05-07T11:02:13;22.40;98.20
4811;DHT22;2419;51.276;6.472;2023-05-07T11:05:19;22.40;97.10
4811;DHT22;2419;51.276;6.472;2023-05-07T11:08:04;22.10;97.10
4811;DHT22;2419;51.276;6.472;2023-05-07T11:10:51;22.10;99.20
4811;DHT22;2419;51.276;6.472;2023-05-07T11:13:42;22.10;97.70
4811;DHT22;2419;51.276;6.472;2023-05-07T11:16:21;22.20;97.70
4811;DHT22;2419;51.276;6.472;2023-05-07T11:18:56;22.30;97.40
4811;DHT22;2419;51.276;6.472;2023-05-07T11:21:32;22.40;96.70
4811;DHT22;2419;51.276;6.472;2023-05-07T11:24:24;22.40;96.90
4811;DHT22;2419;51.276;6.472;2023-05-07T11:26:57;22.40;97.30
4811;DHT22;2419;51.276;6.472;2023-05-07T11:29:26;22.50;96.40
4811;DHT22;2419;51.276;6.472;2023-05-07T11:32:03;22.70;95.80
4811;DHT22;2419;51.276;6.472;2023-05-07T11:34:39;22.80;95.80
4811;DHT22;2419;51.276;6.472;2023-05-07T11:37:09;22.90;96.00
4811;DHT22;2419;51.276;6.472;2023-05-07T11:40:03;22.90;97.30
4811;DHT22;2419;51.276;6.472;2023-05-07T11:42:33;23.00;95.70
4811;DHT22;2419;51.276;6.472;2023-05-07T11:45:02;23.00;95.60
4811;DHT22;2419;51.276;6.472;2023-05-07T11:47:33;23.20;94.90
4811;DHT22;2419;51.276;6.472;2023-05-07T11:50:04;23.00;94.90
4811;DHT22;2419;51.276;6.472;2023-05-07T11:52:33;23.20;95.80
4811;DHT22;2419;51.276;6.472;2023-05-07T11:55:02;23.00;95.40
4811;DHT22;2419;51.276;6.472;2023-05-07T11:57:33;22.70;96.10
4811;DHT22;2419;51.276;6.472;2023-05-07T12:00:01;22.60;96.60
4811;DHT22;2419;51.276;6.472;2023-05-07T12:02:39;22.60;95.00
4811;DHT22;2419;51.276;6.472;2023-05-07T12:05:08;22.50;94.90
4811;DHT22;2419;51.276;6.472;2023-05-07T12:07:37;22.40;95.40
4811;DHT22;2419;51.276;6.472;2023-05-07T12:10:06;22.20;95.30
4811;DHT22;2419;51.276;6.472;2023-05-07T12:12:38;22.10;95.50
4811;DHT22;2419;51.276;6.472;2023-05-07T12:15:07;22.00;96.10
4811;DHT22;2419;51.276;6.472;2023-05-07T12:17:36;22.10;96.20
4811;DHT22;2419;51.276;6.472;2023-05-07T12:20:08;22.30;96.90
4811;DHT22;2419;51.276;6.472;2023-05-07T12:22:37;22.30;97.20
4811;DHT22;2419;51.276;6.472;2023-05-07T12:25:06;22.30;96.00
4811;DHT22;2419;51.276;6.472;2023-05-07T12:27:36;22.30;95.40
4811;DHT22;2419;51.276;6.472;2023-05-07T12:30:06;22.30;96.10
4811;DHT22;2419;51.276;6.472;2023-05-07T12:32:34;22.20;96.60
4811;DHT22;2419;51.276;6.472;2023-05-07T12:35:07;22.10;97.00
4811;DHT22;2419;51.276;6.472;2023-05-07T12:37:36;22.10;97.30
4811;DHT22;2419;51.276;6.472;2023-05-07T12:40:04;22.20;97.90
4811;DHT22;2419;51.276;6.472;2023-05-07T12:42:36;22.20;96.40
4811;DHT22;2419;51.276;6.472;2023-05-07T12:45:11;22.20;97.00
4811;DHT22;2419;51.276;6.472;2023-05-07T12:47:44;22.30;96.80
4811;DHT22;2419;51.276;6.472;2023-05-07T12:50:14;22.10;95.70
4811;DHT22;2419;51.276;6.472;2023-05-07T12:52:43;22.20;96.20
4811;DHT22;2419;51.276;6.472;2023-05-07T12:55:14;22.10;96.00
4811;DHT22;2419;51.276;6.472;2023-05-07T12:57:43;22.10;96.90
4811;DHT22;2419;51.276;6.472;2023-05-07T13:00:14;22.00;96.60
4811;DHT22;2419;51.276;6.472;2023-05-07T13:02:43;21.90;96.10
4811;DHT22;2419;51.276;6.472;2023-05-07T13:05:13;22.00;96.40
4811;DHT22;2419;51.276;6.472;2023-05-07T13:07:52;21.90;96.30
4811;DHT22;2419;51.276;6.472;2023-05-07T13:10:22;21.90;96.70
4811;DHT22;2419;51.276;6.472;2023-05-07T13:12:50;21.90;96.60
4811;DHT22;2419;51.276;6.472;2023-05-07T13:15:19;21.90;97.20
4811;DHT22;2419;51.276;6.472;2023-05-07T13:17:47;21.90;97.20
4811;DHT22;2419;51.276;6.472;2023-05-07T13:20:16;21.80;97.20
4811;DHT22;2419;51.276;6.472;2023-05-07T13:22:44;21.70;97.00
4811;DHT22;2419;51.276;6.472;2023-05-07T13:25:12;21.70;97.10
4811;DHT22;2419;51.276;6.472;2023-05-07T13:27:41;21.80;96.90
4811;DHT22;2419;51.276;6.472;2023-05-07T13:30:09;21.80;97.40
4811;DHT22;2419;51.276;6.472;2023-05-07T13:32:37;21.80;96.90
4811;DHT22;2419;51.276;6.472;2023-05-07T13:35:07;21.80;97.00
4811;DHT22;2419;51.276;6.472;2023-05-07T13:37:36;21.80;97.70
4811;DHT22;2419;51.276;6.472;2023-05-07T13:40:05;21.70;98.50
4811;DHT22;2419;51.276;6.472;2023-05-07T13:42:34;21.70;98.90
4811;DHT22;2419;51.276;6.472;2023-05-07T13:45:03;21.50;99.90
4811;DHT22;2419;51.276;6.472;2023-05-07T13:47:31;21.40;99.90
4811;DHT22;2419;51.276;6.472;2023-05-07T13:49:59;21.20;99.90
4811;DHT22;2419;51.276;6.472;2023-05-07T13:52:27;21.10;99.90
4811;DHT22;2419;51.276;6.472;2023-05-07T13:54:57;21.00;99.90
4811;DHT22;2419;51.276;6.472;2023-05-07T13:57:31;20.90;99.90
4811;DHT22;2419;51.276;6.472;2023-05-07T14:00:20;20.90;99.90
4811;DHT22;2419;51.276;6.472;2023-05-07T14:02:48;20.80;99.90
4811;DHT22;2419;51.276;6.472;2023-05-07T14:05:16;20.80;99.90
4811;DHT22;2419;51.276;6.472;2023-05-07T14:07:45;20.80;99.90
4811;DHT22;2419;51.276;6.472;2023-05-07T14:10:15;20.80;99.90
4811;DHT22;2419;51.276;6.472;2023-05-07T14:12:43;20.80;99.90
4811;DHT22;2419;51.276;6.472;2023-05-07T14:15:13;20.80;99.90
4811;DHT22;2419;51.276;6.472;2023-05-07T14:17:41;20.80;99.90
4811;DHT22;2419;51.276;6.472;2023-05-07T14:20:10;20.80;99.90
4811;DHT22;2419;51.276;6.472;2023-05-07T14:22:39;20.80;99.90
4811;DHT22;2419;51.276;6.472;2023-05-07T14:25:07;20.80;99.90
4811;DHT22;2419;51.276;6.472;2023-05-07T14:27:38;20.80;99.90
4811;DHT22;2419;51.276;6.472;2023-05-07T14:30:07;20.80;99.90
4811;DHT22;2419;51.276;6.472;2023-05-07T14:32:35;20.80;99.90
4811;DHT22;2419;51.276;6.472;2023-05-07T14:35:04;20.70;99.90
4811;DHT22;2419;51.276;6.472;2023-05-07T14:37:32;20.70;99.90
4811;DHT22;2419;51.276;6.472;2023-05-07T14:40:00;20.70;99.90
4811;DHT22;2419;51.276;6.472;2023-05-07T14:42:29;20.60;99.90
4811;DHT22;2419;51.276;6.472;2023-05-07T14:44:58;20.60;99.90
4811;DHT22;2419;51.276;6.472;2023-05-07T14:47:26;20.50;99.90
4811;DHT22;2419;51.276;6.472;2023-05-07T14:49:54;20.50;99.90
4811;DHT22;2419;51.276;6.472;2023-05-07T14:52:24;20.40;99.90
4811;DHT22;2419;51.276;6.472;2023-05-07T14:54:52;20.30;99.90
4811;DHT22;2419;51.276;6.472;2023-05-07T14:57:20;20.20;99.90
4811;DHT22;2419;51.276;6.472;2023-05-07T14:59:49;19.90;99.90
4811;DHT22;2419;51.276;6.472;2023-05-07T15:02:18;19.50;99.90
4811;DHT22;2419;51.276;6.472;2023-05-07T15:04:47;19.20;99.90
4811;DHT22;2419;51.276;6.472;2023-05-07T15:07:15;18.90;99.90
4811;DHT22;2419;51.276;6.472;2023-05-07T15:09:44;18.80;99.90
4811;DHT22;2419;51.276;6.472;2023-05-07T15:12:13;18.70;99.90
4811;DHT22;2419;51.276;6.472;2023-05-07T15:14:41;18.60;99.90
4811;DHT22;2419;51.276;6.472;2023-05-07T15:17:09;18.40;99.90
4811;DHT22;2419;51.276;6.472;2023-05-07T15:19:38;18.30;99.90
4811;DHT22;2419;51.276;6.472;2023-05-07T15:22:06;18.30;99.90
4811;DHT22;2419;51.276;6.472;2023-05-07T15:24:35;18.20;99.90
4811;DHT22;2419;51.276;6.472;2023-05-07T15:27:03;18.30;99.90
4811;DHT22;2419;51.276;6.472;2023-05-07T15:29:31;18.30;99.90
4811;DHT22;2419;51.276;6.472;2023-05-07T15:32:00;18.20;99.90
4811;DHT22;2419;51.276;6.472;2023-05-07T15:34:28;18.20;99.90
4811;DHT22;2419;51.276;6.472;2023-05-07T15:36:58;18.10;99.90
4811;DHT22;2419;51.276;6.472;2023-05-07T15:39:26;18.20;99.90
4811;DHT22;2419;51.276;6.472;2023-05-07T15:41:54;18.20;99.90
4811;DHT22;2419;51.276;6.472;2023-05-07T15:44:22;18.30;99.90
4811;DHT22;2419;51.276;6.472;2023-05-07T15:46:54;18.20;99.90
4811;DHT22;2419;51.276;6.472;2023-05-07T15:49:22;18.20;99.90
4811;DHT22;2419;51.276;6.472;2023-05-07T15:51:50;18.20;99.90
4811;DHT22;2419;51.276;6.472;2023-05-07T15:54:21;18.20;99.90
4811;DHT22;2419;51.276;6.472;2023-05-07T15:56:49;18.10;99.90
4811;DHT22;2419;51.276;6.472;2023-05-07T15:59:17;18.00;99.90
4811;DHT22;2419;51.276;6.472;2023-05-07T16:01:45;18.00;99.90
4811;DHT22;2419;51.276;6.472;2023-05-07T16:04:14;18.10;99.90
4811;DHT22;2419;51.276;6.472;2023-05-07T16:06:42;18.10;99.90
4811;DHT22;2419;51.276;6.472;2023-05-07T16:09:12;18.10;99.90
4811;DHT22;2419;51.276;6.472;2023-05-07T16:11:42;18.10;99.90
4811;DHT22;2419;51.276;6.472;2023-05-07T16:14:10;18.20;99.90
4811;DHT22;2419;51.276;6.472;2023-05-07T16:16:38;18.10;99.90
4811;DHT22;2419;51.276;6.472;2023-05-07T16:19:07;18.30;99.90
4811;DHT22;2419;51.276;6.472;2023-05-07T16:21:35;18.40;99.90
4811;DHT22;2419;51.276;6.472;2023-05-07T16:24:04;18.50;99.90